CW4778 Auckland NZ current weather conditions

sailwx.info

Wind from 063 at 5 knots gusting 12

Air temperature 20.6° C
Dewpoint 17.6° C

Last reported at 2016-Feb-14 13:48 UTC.
Time now 2016-Feb-14 14:41 UTC

Location: S 36°52' E 174°44'.
View on Google Maps.

See reports from other nearby stations

  
Tides and Currents Weather Stations Pressure Air Temp Water Temp Dewpoint Dewpoint Depression Visibility Wind Speed Wind Dir Waves Ship Positions
date/time (UTC)wind fromknots sea level pressurealtimeterstation pressurevisibilityair tempwater tempwave heightnotes
2016-Feb-14 13:48 063 5 gusting 12 20.6
2016-Feb-14 13:38 084 5 gusting 8 20.6
2016-Feb-14 13:28 046 2 gusting 8 20.6
2016-Feb-14 13:18 037 4 gusting 6 20.6
2016-Feb-14 13:08 051 5 gusting 8 20.6
2016-Feb-14 12:58 092 5 gusting 7 20.0
2016-Feb-14 12:48 067 7 gusting 13 20.6
2016-Feb-14 12:38 099 7 gusting 14 20.6
2016-Feb-14 12:28 114 6 gusting 11 20.6
2016-Feb-14 12:18 073 6 gusting 12 20.0
2016-Feb-14 12:08 085 3 gusting 10 20.6
2016-Feb-14 11:58 064 6 gusting 12 20.6
2016-Feb-14 11:48 091 2 gusting 8 20.6
2016-Feb-14 11:28 100 4 gusting 10 20.6
2016-Feb-14 11:18 080 6 gusting 8 20.6
2016-Feb-14 10:48 098 7 gusting 11 20.0
2016-Feb-14 10:38 088 6 gusting 10 20.0
2016-Feb-14 10:28 088 7 gusting 13 20.0
2016-Feb-14 10:08 097 5 gusting 11 20.6
2016-Feb-14 09:58 079 4 gusting 10 20.0
2016-Feb-14 09:48 074 4 gusting 7 20.0
2016-Feb-14 09:28 093 4 gusting 7 20.0
2016-Feb-14 09:18 100 7 gusting 8 20.6
2016-Feb-14 08:58 079 6 gusting 13 20.6
2016-Feb-14 08:48 094 4 gusting 8 20.6
2016-Feb-14 08:38 101 4 gusting 13 20.6
2016-Feb-14 08:28 082 4 gusting 12 20.6
2016-Feb-14 08:18 077 5 gusting 11 21.1
2016-Feb-14 08:08 058 5 gusting 11 21.1
2016-Feb-14 07:58 071 6 gusting 11 21.1
2016-Feb-14 07:48 051 7 gusting 13 21.1
2016-Feb-14 07:38 071 3 gusting 11 21.1
2016-Feb-14 07:28 092 8 gusting 18 21.7
2016-Feb-14 07:18 045 7 gusting 13 21.7
2016-Feb-14 07:08 050 7 gusting 14 21.7
2016-Feb-14 06:58 054 8 gusting 17 21.7
2016-Feb-14 06:48 064 6 gusting 13 21.7
2016-Feb-14 06:38 057 8 gusting 14 21.7
2016-Feb-14 06:18 028 6 gusting 13 22.2
2016-Feb-14 06:08 034 8 gusting 14 22.2
2016-Feb-14 05:58 071 8 gusting 13 22.8
2016-Feb-14 05:48 050 8 gusting 15 22.8
2016-Feb-14 05:38 089 11 gusting 17 22.8
2016-Feb-14 05:27 045 8 gusting 14 22.8
2016-Feb-14 05:17 063 8 gusting 14 23.3
2016-Feb-14 04:57 034 12 gusting 18 23.3
2016-Feb-14 04:47 056 11 gusting 20 23.9
2016-Feb-14 04:37 063 10 gusting 19 23.9
2016-Feb-14 04:27 066 6 gusting 15 24.4
2016-Feb-14 04:17 078 9 gusting 15 24.4
2016-Feb-14 04:07 076 11 gusting 19 23.9
2016-Feb-14 03:57 089 11 gusting 19 23.9
2016-Feb-14 03:47 048 10 gusting 18 23.3
2016-Feb-14 03:37 094 12 gusting 24 24.4
2016-Feb-14 03:27 083 6 gusting 24 24.4
2016-Feb-14 03:17 072 10 gusting 19 23.9
2016-Feb-14 03:07 040 9 gusting 18 24.4
2016-Feb-14 02:57 054 10 gusting 17 25.0
2016-Feb-14 02:47 057 11 gusting 19 24.4
2016-Feb-14 02:37 055 10 gusting 18 23.9
2016-Feb-14 02:27 078 12 gusting 21 25.0
2016-Feb-14 02:07 063 13 gusting 26 25.0
2016-Feb-14 01:57 088 12 gusting 18 25.6
2016-Feb-14 01:47 046 13 gusting 19 25.6
2016-Feb-14 01:37 063 11 gusting 17 25.0
2016-Feb-14 01:27 030 12 gusting 20 25.6
2016-Feb-14 01:17 068 11 gusting 18 25.6
2016-Feb-14 01:07 078 12 gusting 22 25.0
2016-Feb-14 00:57 077 12 gusting 19 25.6
2016-Feb-14 00:47 059 10 gusting 19 26.1
2016-Feb-14 00:37 091 11 gusting 18 25.0
2016-Feb-14 00:27 072 11 gusting 18 25.0
2016-Feb-14 00:17 089 11 gusting 20 25.6
2016-Feb-14 00:07 086 11 gusting 17 25.6
2016-Feb-13 23:47 064 12 gusting 18 25.6
2016-Feb-13 23:27 059 10 gusting 17 25.6
2016-Feb-13 23:17 091 12 gusting 21 25.0
2016-Feb-13 23:07 026 10 gusting 15 25.6
2016-Feb-13 22:57 061 11 gusting 17 25.0
2016-Feb-13 22:47 067 7 gusting 13 25.6
2016-Feb-13 22:37 073 9 gusting 17 24.4
2016-Feb-13 22:27 067 6 gusting 14 25.0
2016-Feb-13 22:17 076 11 gusting 19 24.4
2016-Feb-13 22:07 050 6 gusting 13 25.0
2016-Feb-13 21:57 090 10 gusting 14 23.9
2016-Feb-13 21:37 050 7 gusting 15 23.3
2016-Feb-13 21:27 095 6 gusting 13 23.9
2016-Feb-13 21:17 049 6 gusting 18 23.9
2016-Feb-13 21:07 080 11 gusting 19 21.7
2016-Feb-13 20:57 080 10 gusting 14 22.2
2016-Feb-13 20:47 097 7 gusting 14 22.2
2016-Feb-13 20:37 085 5 gusting 18 22.2
2016-Feb-13 20:27 053 8 gusting 19 22.2
2016-Feb-13 20:17 106 8 gusting 13 22.8
2016-Feb-13 20:07 060 4 gusting 11 21.7
2016-Feb-13 19:57 097 9 gusting 13 22.2
2016-Feb-13 19:37 086 7 gusting 13 21.7
2016-Feb-13 19:27 095 5 gusting 12 21.1
2016-Feb-13 19:17 114 7 gusting 12 21.1
2016-Feb-13 19:07 119 5 gusting 11 20.6
2016-Feb-13 18:57 100 6 gusting 11 20.6
2016-Feb-13 18:47 115 6 gusting 8 20.0
2016-Feb-13 18:37 120 6 gusting 8 20.0
2016-Feb-13 18:27 112 4 gusting 8 19.4
2016-Feb-13 18:17 125 6 gusting 7 19.4
2016-Feb-13 18:07 098 2 gusting 6 18.9
2016-Feb-13 17:57 100 5 gusting 6 19.4
2016-Feb-13 17:37 108 6 gusting 8 18.9
2016-Feb-13 17:27 110 5 gusting 7 18.9
2016-Feb-13 17:17 100 5 gusting 11 19.4
2016-Feb-13 16:57 104 6 gusting 8 19.4
2016-Feb-13 16:47 125 5 gusting 8 19.4
2016-Feb-13 16:37 100 6 gusting 12 19.4
2016-Feb-13 16:27 113 6 gusting 11 19.4
2016-Feb-13 16:17 093 5 gusting 11 19.4
2016-Feb-13 15:57 093 6 gusting 11 19.4
2016-Feb-13 15:47 097 5 gusting 8 19.4
2016-Feb-13 15:27 096 2 gusting 8 19.4
2016-Feb-13 15:07 089 4 gusting 6 20.0
2016-Feb-13 14:57 071 4 gusting 7 19.4
2016-Feb-13 14:37 081 5 gusting 7 20.0
2016-Feb-13 14:27 102 2 gusting 6 19.4
2016-Feb-13 14:17 103 4 gusting 7 20.0
2016-Feb-13 14:07 089 4 gusting 7 20.0
2016-Feb-13 13:47 106 4 gusting 6 20.0
2016-Feb-13 13:37 051 2 gusting 7 20.0
2016-Feb-13 13:17 097 2 gusting 7 20.0
2016-Feb-13 13:07 092 1 gusting 6 20.0
2016-Feb-13 12:57 098 5 gusting 13 20.0
2016-Feb-13 12:37 080 2 gusting 5 20.0
2016-Feb-13 12:27 052 1 gusting 2 20.0
2016-Feb-13 12:17 054 2 gusting 5 20.0
2016-Feb-13 12:07 067 2 gusting 8 20.6
2016-Feb-13 11:57 059 2 gusting 10 20.0
2016-Feb-13 11:37 049 1 gusting 6 20.6
2016-Feb-13 11:28 037 5 gusting 8 20.6
2016-Feb-13 11:17 034 5 gusting 10 20.6
2016-Feb-13 11:08 048 2 gusting 7 20.6
2016-Feb-13 10:57 042 4 gusting 10 20.6
2016-Feb-13 10:47 053 2 gusting 8 20.6
2016-Feb-13 10:37 060 4 gusting 7 20.6
2016-Feb-13 10:27 050 6 gusting 11 20.6
2016-Feb-13 10:17 060 2 gusting 7 21.1
2016-Feb-13 10:07 034 2 gusting 8 20.6
2016-Feb-13 09:57 047 3 gusting 7 20.6
2016-Feb-13 09:47 058 4 gusting 11 21.1
2016-Feb-13 09:37 077 6 gusting 7 20.6
2016-Feb-13 09:27 044 2 gusting 6 21.1
2016-Feb-13 09:17 026 5 gusting 8 21.1
2016-Feb-13 09:07 036 4 gusting 8 21.1
2016-Feb-13 08:57 028 6 gusting 10 21.1
2016-Feb-13 08:47 016 4 gusting 7 21.1
2016-Feb-13 08:37 046 4 gusting 10 21.1
2016-Feb-13 08:17 052 4 gusting 10 21.7
2016-Feb-13 08:07 046 5 gusting 11 21.7
2016-Feb-13 07:57 050 4 gusting 10 21.7
2016-Feb-13 07:47 051 6 gusting 12 21.7
2016-Feb-13 07:37 058 4 gusting 8 21.7
2016-Feb-13 07:17 056 4 gusting 13 22.2
2016-Feb-13 07:07 038 7 gusting 13 22.2
2016-Feb-13 06:57 046 4 gusting 11 22.8
2016-Feb-13 06:47 347 5 gusting 10 22.8
2016-Feb-13 06:37 354 6 gusting 10 22.8
2016-Feb-13 06:27 338 6 gusting 13 22.8
2016-Feb-13 06:17 060 5 gusting 11 23.3
2016-Feb-13 06:07 080 6 gusting 13 23.3
2016-Feb-13 05:57 044 8 gusting 14 23.3
2016-Feb-13 05:47 005 4 gusting 12 23.3
2016-Feb-13 05:37 049 6 gusting 13 23.9
2016-Feb-13 05:07 046 7 gusting 13 23.9
2016-Feb-13 04:57 23.9
2016-Feb-13 04:47 011 11 gusting 13 24.4
2016-Feb-13 04:37 002 5 gusting 14 23.9
2016-Feb-13 04:27 354 8 gusting 13 23.9
2016-Feb-13 04:17 001 8 gusting 12 24.4
2016-Feb-13 04:07 050 6 gusting 13 24.4
2016-Feb-13 03:57 047 5 gusting 14 24.4
2016-Feb-13 03:47 025 7 gusting 13 24.4
2016-Feb-13 03:37 028 10 gusting 18 24.4
2016-Feb-13 03:17 026 8 gusting 13 25.0
2016-Feb-13 03:07 003 7 gusting 14 25.0
2016-Feb-13 02:57 033 10 gusting 15 25.6
2016-Feb-13 02:47 006 12 gusting 17 25.6
2016-Feb-13 02:37 358 8 gusting 14 26.1
2016-Feb-13 02:27 349 6 gusting 13 26.1
2016-Feb-13 02:17 036 8 gusting 13 26.1
2016-Feb-13 02:07 019 7 gusting 13 26.1
2016-Feb-13 01:57 025 7 gusting 13 26.1
2016-Feb-13 01:47 038 6 gusting 12 27.2
2016-Feb-13 01:37 337 7 gusting 13 27.2
2016-Feb-13 01:27 347 6 gusting 11 26.7
2016-Feb-13 01:17 103 6 gusting 12 27.2
2016-Feb-13 01:07 060 4 gusting 12 26.7
2016-Feb-13 00:57 058 6 gusting 13 26.7
2016-Feb-13 00:47 015 6 gusting 11 26.7
2016-Feb-13 00:37 049 5 gusting 10 26.7
2016-Feb-13 00:17 018 5 gusting 13 26.1
2016-Feb-13 00:07 004 6 gusting 12 26.1
2016-Feb-12 23:57 006 6 gusting 10 26.7
2016-Feb-12 23:37 044 5 gusting 11 25.6
2016-Feb-12 23:17 085 2 gusting 12 26.1
2016-Feb-12 23:07 044 5 gusting 10 25.6
2016-Feb-12 22:57 027 6 gusting 10 27.2
2016-Feb-12 22:47 115 1 gusting 5 25.6
2016-Feb-12 22:37 058 3 gusting 8 25.0
2016-Feb-12 22:27 039 6 gusting 7 26.1
2016-Feb-12 22:17 028 6 gusting 10 26.1
2016-Feb-12 22:07 036 6 gusting 10 25.6
2016-Feb-12 21:57 354 4 gusting 7 25.6
2016-Feb-12 21:47 062 1 gusting 8 24.4
2016-Feb-12 21:27 065 3 gusting 6 24.4
2016-Feb-12 21:17 018 2 gusting 6 24.4
2016-Feb-12 20:57 065 4 gusting 6 23.3
2016-Feb-12 20:37 041 4 gusting 7 23.3
2016-Feb-12 20:27 069 0 gusting 6 22.8
2016-Feb-12 20:17 051 1 gusting 6 22.2
2016-Feb-12 20:07 048 0 gusting 1 21.7
2016-Feb-12 19:57 248 21.1
2016-Feb-12 19:47 256 20.6
2016-Feb-12 19:37 259 1 gusting 4 20.6
2016-Feb-12 19:27 184 20.0
2016-Feb-12 19:17 177 0 gusting 4 20.0
2016-Feb-12 19:07 168 0 gusting 6 18.9
2016-Feb-12 18:57 170 1 gusting 4 18.9
2016-Feb-12 18:47 162 0 gusting 5 18.3
2016-Feb-12 18:37 171 1 gusting 5 18.3
2016-Feb-12 18:27 153 2 gusting 6 17.8
2016-Feb-12 18:17 160 3 gusting 6 17.8
2016-Feb-12 18:07 174 2 gusting 5 17.2
2016-Feb-12 17:57 175 0 gusting 4 17.2
2016-Feb-12 17:47 186 0 gusting 2 17.2
2016-Feb-12 17:37 164 17.2
2016-Feb-12 17:27 157 0 gusting 2 17.2
2016-Feb-12 17:17 153 17.2
2016-Feb-12 17:07 151 0 gusting 2 17.2
2016-Feb-12 16:57 140 0 gusting 4 17.8
2016-Feb-12 16:47 154 0 gusting 4 17.8
2016-Feb-12 16:37 193 17.8
2016-Feb-12 16:27 194 17.8
2016-Feb-12 16:17 192 17.8
2016-Feb-12 16:07 194 17.8
2016-Feb-12 15:57 193 17.8
2016-Feb-12 15:47 194 18.3
2016-Feb-12 15:37 194 18.3
2016-Feb-12 15:27 183 1 gusting 5 18.3
2016-Feb-12 15:17 193 0 gusting 1 18.3
2016-Feb-12 15:07 194 18.3
2016-Feb-12 14:37 180 2 gusting 4 18.9
2016-Feb-12 14:27 186 2 gusting 4 18.9
2016-Feb-12 14:07 186 0 gusting 5 18.9